createdAt,value
2023-09-17T11:05:09.707Z,59.69
2023-09-17T11:07:57.946Z,58.87
2023-09-17T11:10:43.643Z,56.49
2023-09-17T11:13:28.677Z,54.86
2023-09-17T11:16:16.988Z,53.54
2023-09-17T11:19:05.414Z,54.28
2023-09-17T11:21:51.755Z,51.10
2023-09-17T11:24:36.991Z,51.66
2023-09-17T11:27:22.453Z,51.18
2023-09-17T11:30:15.198Z,51.23
2023-09-17T11:33:00.654Z,49.83
2023-09-17T11:35:49.140Z,51.26
2023-09-17T11:38:34.787Z,49.66
2023-09-17T11:41:26.170Z,50.13
2023-09-17T11:44:13.295Z,50.12
2023-09-17T11:46:59.558Z,47.84
2023-09-17T11:49:47.872Z,49.03
2023-09-17T11:52:35.018Z,48.83
2023-09-17T11:55:36.262Z,48.08
2023-09-17T11:58:24.131Z,48.45
2023-09-17T12:01:09.250Z,48.39
2023-09-17T12:03:57.962Z,47.32
2023-09-17T12:06:45.876Z,45.45
2023-09-17T12:09:38.330Z,46.31
2023-09-17T12:12:47.012Z,46.85
2023-09-17T12:15:34.887Z,47.14
2023-09-17T12:18:21.063Z,47.29
2023-09-17T12:21:12.846Z,45.69
2023-09-17T12:24:05.102Z,47.11
2023-09-17T12:27:08.066Z,45.50
2023-09-17T12:29:57.980Z,45.91
2023-09-17T12:32:52.508Z,46.58
2023-09-17T12:35:42.551Z,46.41
2023-09-17T12:38:32.560Z,44.77
2023-09-17T12:41:25.236Z,44.80
2023-09-17T12:44:25.300Z,46.84
2023-09-17T12:47:11.423Z,45.44
2023-09-17T12:49:59.282Z,47.12
2023-09-17T12:52:46.394Z,46.07
2023-09-17T12:55:33.784Z,46.14
2023-09-17T12:58:19.915Z,45.64
2023-09-17T13:01:12.606Z,45.48
2023-09-17T13:03:58.751Z,45.52
2023-09-17T13:06:48.010Z,45.65
2023-09-17T13:09:33.940Z,45.13
2023-09-17T13:12:21.388Z,44.40
2023-09-17T13:15:19.457Z,45.11
2023-09-17T13:18:22.233Z,45.25
2023-09-17T13:21:10.310Z,45.59
2023-09-17T13:27:02.040Z,45.31
2023-09-17T13:29:49.067Z,44.85
2023-09-17T13:32:35.269Z,47.00
2023-09-17T13:35:23.692Z,45.84
2023-09-17T13:38:12.253Z,46.18
2023-09-17T13:40:57.439Z,46.11
2023-09-17T13:43:42.793Z,45.56
2023-09-17T13:46:28.426Z,46.40
2023-09-17T13:49:13.667Z,46.08
2023-09-17T13:51:58.700Z,46.09
2023-09-17T13:54:44.224Z,46.05
2023-09-17T13:57:29.581Z,47.36
2023-09-17T14:00:15.355Z,46.24
2023-09-17T14:03:02.429Z,45.10
2023-09-17T14:05:47.907Z,44.76
2023-09-17T14:08:32.862Z,44.51
2023-09-17T14:11:18.313Z,45.98
2023-09-17T14:14:03.603Z,45.36
2023-09-17T14:16:49.205Z,46.30
2023-09-17T14:19:34.405Z,46.25
2023-09-17T14:22:19.183Z,46.22
2023-09-17T14:25:05.041Z,45.50
2023-09-17T14:27:50.631Z,44.56
2023-09-17T14:30:35.992Z,45.91
2023-09-17T14:33:21.986Z,46.21
2023-09-17T14:36:07.387Z,45.16
2023-09-17T14:38:53.264Z,45.57
2023-09-17T14:41:38.388Z,45.94
2023-09-17T14:44:23.607Z,46.23
2023-09-17T14:47:09.042Z,46.18
2023-09-17T14:49:54.361Z,46.45
2023-09-17T14:52:39.975Z,46.15
2023-09-17T14:55:24.981Z,47.49
2023-09-17T14:58:10.388Z,47.40
2023-09-17T15:00:55.762Z,46.15
2023-09-17T15:03:41.320Z,45.73
2023-09-17T15:06:26.678Z,46.12
2023-09-17T15:09:11.606Z,45.62
2023-09-17T15:11:57.037Z,46.53
2023-09-17T15:14:42.238Z,45.72
2023-09-17T15:17:27.707Z,46.35
2023-09-17T15:20:13.018Z,45.64
2023-09-17T15:22:58.515Z,47.11
2023-09-17T15:25:43.945Z,46.29
2023-09-17T15:28:29.231Z,45.31
2023-09-17T15:31:14.270Z,47.45
2023-09-17T15:33:59.712Z,46.69
2023-09-17T15:36:45.367Z,47.20
2023-09-17T15:39:30.722Z,47.16
2023-09-17T15:42:16.133Z,47.58
2023-09-17T15:45:01.421Z,46.47
2023-09-17T15:47:46.684Z,47.73
2023-09-17T15:50:32.128Z,44.91
2023-09-17T15:53:17.692Z,48.44
2023-09-17T15:56:02.805Z,47.94
2023-09-17T15:58:48.565Z,48.04
2023-09-17T16:01:33.760Z,47.57
2023-09-17T16:04:19.178Z,47.38
2023-09-17T16:07:04.494Z,47.53
2023-09-17T16:09:52.265Z,47.63
2023-09-17T16:12:40.873Z,48.25
2023-09-17T16:15:29.641Z,48.24
2023-09-17T16:18:15.020Z,48.17
2023-09-17T16:21:00.327Z,48.12
2023-09-17T16:23:45.834Z,48.18
2023-09-17T16:26:32.300Z,48.75
2023-09-17T16:29:19.785Z,48.41
2023-09-17T16:32:04.792Z,48.38
2023-09-17T16:34:50.245Z,48.48
2023-09-17T16:37:35.734Z,48.86
2023-09-17T16:40:21.059Z,48.95
2023-09-17T16:43:09.459Z,49.83
2023-09-17T16:45:56.372Z,50.44
2023-09-17T16:48:41.565Z,51.08
2023-09-17T16:51:27.051Z,51.51
2023-09-17T16:54:12.459Z,51.78
2023-09-17T16:56:57.645Z,52.49
2023-09-17T16:59:43.294Z,52.86
2023-09-17T17:02:28.719Z,53.31
2023-09-17T17:05:14.529Z,53.24
2023-09-17T17:07:59.796Z,53.56
2023-09-17T17:10:45.253Z,53.78
2023-09-17T17:13:30.723Z,54.43
2023-09-17T17:16:16.088Z,55.14
2023-09-17T17:19:01.314Z,55.74
2023-09-17T17:21:46.679Z,55.61
2023-09-17T17:24:32.147Z,56.22
2023-09-17T17:27:17.705Z,56.44
2023-09-17T17:30:03.332Z,56.47
2023-09-17T17:32:48.727Z,57.13
2023-09-17T17:35:34.109Z,57.85
2023-09-17T17:38:19.577Z,58.21
2023-09-17T17:41:04.921Z,58.63
2023-09-17T17:43:50.278Z,57.47
2023-09-17T17:46:36.009Z,58.09
2023-09-17T17:49:21.441Z,56.26
2023-09-17T17:52:06.850Z,56.45
2023-09-17T17:54:51.941Z,58.25
2023-09-17T17:57:36.785Z,57.54
2023-09-17T18:00:22.167Z,58.43
2023-09-17T18:03:07.629Z,58.89
2023-09-17T18:05:53.323Z,58.78
2023-09-17T18:08:38.718Z,59.57
2023-09-17T18:11:24.277Z,60.26
2023-09-17T18:14:09.926Z,59.75
2023-09-17T18:16:55.251Z,60.06
2023-09-17T18:19:40.537Z,57.42
2023-09-17T18:22:25.875Z,57.91
2023-09-17T18:25:11.153Z,57.60
2023-09-17T18:27:56.510Z,58.04
2023-09-17T18:30:42.046Z,57.48
2023-09-17T18:33:27.444Z,57.77
2023-09-17T18:36:12.831Z,57.59
2023-09-17T18:38:58.237Z,58.81
2023-09-17T18:41:43.773Z,58.38
2023-09-17T18:44:29.351Z,58.70
2023-09-17T18:47:15.569Z,59.21
2023-09-17T18:50:00.927Z,59.68
2023-09-17T18:52:46.452Z,59.96
2023-09-17T18:55:31.413Z,60.17
2023-09-17T18:58:17.069Z,60.62
2023-09-17T19:01:02.466Z,60.52
2023-09-17T19:03:48.621Z,60.35
2023-09-17T19:06:34.333Z,60.88
2023-09-17T19:09:19.118Z,60.71
2023-09-17T19:12:04.804Z,61.16
2023-09-17T19:14:50.027Z,61.23
2023-09-17T19:17:35.342Z,61.48
2023-09-17T19:20:20.625Z,61.80
2023-09-17T19:23:06.080Z,62.10
2023-09-17T19:25:51.764Z,62.56
2023-09-17T19:28:38.683Z,63.16
2023-09-17T19:31:23.868Z,63.38
2023-09-17T19:34:09.588Z,63.46
2023-09-17T19:36:54.931Z,63.18
2023-09-17T19:39:40.352Z,63.07
2023-09-17T19:42:25.638Z,63.08
2023-09-17T19:45:10.774Z,62.49
2023-09-17T19:47:56.244Z,62.41
2023-09-17T19:50:41.633Z,62.56
2023-09-17T19:53:26.610Z,63.01
2023-09-17T19:56:11.710Z,63.05
2023-09-17T19:58:57.649Z,63.25
2023-09-17T20:01:43.844Z,63.09
2023-09-17T20:04:30.709Z,63.57
2023-09-17T20:07:15.958Z,64.16
2023-09-17T20:10:02.246Z,63.66
2023-09-17T20:12:47.700Z,64.11
2023-09-17T20:15:33.276Z,64.72
2023-09-17T20:18:18.608Z,64.73
2023-09-17T20:21:04.066Z,64.65
2023-09-17T20:23:49.297Z,64.77
2023-09-17T20:26:34.184Z,65.91
2023-09-17T20:29:19.664Z,66.06
2023-09-17T20:32:05.106Z,66.15
2023-09-17T20:34:50.289Z,66.31
2023-09-17T20:37:35.651Z,66.17
2023-09-17T20:40:21.009Z,65.94
2023-09-17T20:43:06.396Z,66.06
2023-09-17T20:45:51.641Z,66.01
2023-09-17T20:48:37.087Z,65.96
2023-09-17T20:51:22.438Z,65.93
2023-09-17T20:54:07.808Z,66.52
2023-09-17T20:56:52.818Z,66.56
2023-09-17T20:59:38.489Z,66.51
2023-09-17T21:02:27.023Z,67.06
2023-09-17T21:05:12.637Z,67.30
2023-09-17T21:07:58.124Z,67.25
2023-09-17T21:10:43.939Z,67.59
2023-09-17T21:13:28.996Z,67.87
2023-09-17T21:16:17.037Z,67.94
2023-09-17T21:19:02.779Z,67.99
2023-09-17T21:21:48.146Z,68.36
2023-09-17T21:24:33.588Z,68.45
2023-09-17T21:27:19.010Z,68.64
2023-09-17T21:30:04.762Z,69.08
2023-09-17T21:32:49.668Z,69.30
2023-09-17T21:35:34.988Z,69.62
2023-09-17T21:38:20.151Z,69.25
2023-09-17T21:41:05.551Z,69.20
2023-09-17T21:43:50.968Z,69.76
2023-09-17T21:46:36.518Z,69.56
2023-09-17T21:49:22.379Z,70.16
2023-09-17T21:52:07.742Z,70.61
2023-09-17T21:54:52.876Z,70.75
2023-09-17T21:57:38.388Z,70.80
2023-09-17T22:00:23.810Z,71.61
2023-09-17T22:03:09.392Z,71.01
2023-09-17T22:05:54.504Z,71.17
2023-09-17T22:08:39.592Z,72.18
2023-09-17T22:11:25.101Z,72.14
2023-09-17T22:14:10.226Z,71.87
2023-09-17T22:16:55.896Z,71.98
2023-09-17T22:19:41.361Z,72.56
2023-09-17T22:22:26.816Z,72.08
2023-09-17T22:25:12.297Z,72.67
2023-09-17T22:27:57.894Z,72.08
2023-09-17T22:30:42.646Z,71.88
2023-09-17T22:33:28.063Z,71.95
2023-09-17T22:36:13.534Z,71.89
2023-09-17T22:38:58.828Z,71.51
2023-09-17T22:41:44.263Z,72.56
2023-09-17T22:44:29.685Z,72.72
2023-09-17T22:47:16.207Z,72.40
2023-09-17T22:50:01.984Z,72.43
2023-09-17T22:52:46.924Z,72.34
2023-09-17T22:55:32.189Z,73.26
2023-09-17T22:58:17.703Z,73.32
2023-09-17T23:01:02.606Z,73.12
2023-09-17T23:03:48.060Z,73.73
2023-09-17T23:06:34.205Z,73.57
2023-09-17T23:09:19.372Z,73.72
2023-09-17T23:12:05.133Z,73.78
2023-09-17T23:14:50.234Z,73.51
2023-09-17T23:17:36.296Z,73.63
2023-09-17T23:20:21.414Z,73.69
2023-09-17T23:23:06.777Z,73.83
2023-09-17T23:25:52.349Z,73.58
2023-09-17T23:28:37.584Z,74.32
2023-09-17T23:31:23.194Z,73.98
2023-09-17T23:34:08.384Z,74.02
2023-09-17T23:36:53.291Z,74.85
2023-09-17T23:39:38.638Z,74.81
2023-09-17T23:42:24.056Z,74.65
2023-09-17T23:45:09.547Z,75.33
2023-09-17T23:47:54.594Z,75.01
2023-09-17T23:50:41.481Z,75.57
2023-09-17T23:53:26.884Z,75.82
2023-09-17T23:56:12.133Z,75.58
2023-09-17T23:58:57.613Z,75.30
